Portales, NM (88130)

6:00 AM MDT on August 29, 2014 (GMT -0600)
S of ENMU | Change Station
CLOSE
Current Station
Personal Weather Station
Location: Portales, NM
Elevation: 4078 ft
Nearby Weather Stations

Elev 4078 ft 34.17 °N, 103.35 °W | Updated 15 seconds ago

Clear
Clear
64.3 °F
Feels Like 64.3 °F
N
1.6
Wind Variable Wind from NE
Gusts 5.4 mph

Today
High -- | Low -- °F
--% Chance of Precip.
Yesterday
High -- | Low -- °F
Precip. -- in
6:24 AM 7:23 PM
Waxing Crescent, 14% visible
Pressure 29.90 in
Visibility 10.0 miles
Clouds Clear
Dew Point 56 °F
Humidity 75%
Rainfall 0.00 in
Snow Depth Not available.
UV 0 out of 12
Pollen 8.70 out of 12
Air Quality Not available.
Flu Activity Not available.
METAR KCVS 291158Z AUTO 04008KT 10SM CLR 16/11 A3007 RMK AO2 SLP123 T01570112 10188 20157 50005 $

More Conditions Fewer Conditions

Pressure 29.90 in
Visibility 10.0 miles
Clouds Clear
Dew Point 56 °F
Humidity 75%
Rainfall 0.00 in
Snow Depth Not available.
UV 0 out of 12
Pollen 8.70 out of 12
Air Quality Not available.
Flu Activity Not available.
METAR KCVS 291158Z AUTO 04008KT 10SM CLR 16/11 A3007 RMK AO2 SLP123 T01570112 10188 20157 50005 $

More Conditions Fewer Conditions

10-Day Weather Forecast

Almanac

Astronomy

Aug. 29, 2014 Rise Set
Actual Time 6:24 AM MDT 7:23 PM MDT
Civil Twilight 5:59 AM MDT 7:48 PM MDT
Nautical Twilight 5:28 AM MDT 8:19 PM MDT
Astronomical Twilight 4:57 AM MDT 8:50 PM MDT
Moon 10:04 AM MDT 9:35 PM MDT
Length of Visible Light 13h 49m
Length of Day
12h 58m
Tomorrow will be 2m 1s shorter.
Waxing Crescent, 14% of the Moon is Illuminated
Today
Waxing Crescent
Sep 2
First Quarter
Sep 8
Full
Sep 15
Last Quarter
Sep 24
New

Today's Extremes

State Highs State Lows

Community

WunderPhotos

Upload Photos

1,748,214 photos uploaded!

Nearby

Snow Depth

Station Depth Elevation
Sierra Blanca 2 in 10280 ft
Wesner Springs 2 in 11120 ft
Gallegos Peak 0 in 9800 ft
Tolby 1 in 10180 ft
Red River Pass #2 0 in 9850 ft

Earthquake Activity

City Distance Mag. Time & Date
No recent earthquake activity has been reported nearby.
Minimum magnitude displayed is 2.5.

Coastal Water Temperatures

Place Temperature
No Stations Reporting

Nearby Weather Stations